Time;durP1;ratioP1;P1;durP2;ratioP2;P2;SDS_P1;SDS_P2;PMS_P1;PMS_P2;Temp;Humidity;BMP_temperature;BMP_pressure;BME280_temperature;BME280_humidity;BME280_pressure;Samples;Min_cycle;Max_cycle;Signal;HPM_P1;HPM_P2
2022/12/17 13:07:45;;;;;;;39.73;29.77;;;;;;;12.88;95.73;99549.94;5064745;28;20212;-57
2022/12/17 13:10:28;;;;;;;44.27;31.87;;;;;;;12.77;95.27;99510.31;5073391;28;20202;-57
2022/12/17 13:12:55;;;;;;;40.50;29.13;;;;;;;12.84;96.00;99527.53;5067743;28;20183;-58
2022/12/17 13:15:31;;;;;;;37.30;27.43;;;;;;;12.81;96.33;99518.06;5062294;28;20192;-58
2022/12/17 13:18:18;;;;;;;38.90;28.33;;;;;;;12.80;96.61;99523.25;5055988;28;20203;-58
2022/12/17 13:20:58;;;;;;;42.70;29.40;;;;;;;12.79;97.16;99526.66;5053014;28;20195;-58
2022/12/17 13:23:29;;;;;;;44.80;31.30;;;;;;;12.79;96.90;99522.38;5053277;28;20647;-58
2022/12/17 13:26:19;;;;;;;44.23;32.43;;;;;;;12.71;96.88;99515.41;5067132;28;20269;-58
2022/12/17 13:28:59;;;;;;;39.13;29.97;;;;;;;12.78;97.56;99537.81;5073238;28;20544;-58
2022/12/17 13:31:28;;;;;;;39.17;28.60;;;;;;;12.86;97.56;99539.59;5053151;28;20199;-58
2022/12/17 13:34:07;;;;;;;42.87;30.17;;;;;;;12.86;97.54;99537.00;5052881;28;20243;-58
2022/12/17 13:36:43;;;;;;;43.97;32.67;;;;;;;12.95;97.39;99542.25;5071275;28;20259;-59
2022/12/17 13:39:28;;;;;;;40.07;28.60;;;;;;;12.93;97.41;99554.28;5073114;28;20189;-59
2022/12/17 13:41:55;;;;;;;40.03;27.40;;;;;;;12.96;97.59;99561.19;5073115;28;20264;-59
2022/12/17 13:44:24;;;;;;;34.03;26.47;;;;;;;12.95;97.79;99559.44;5072852;28;20183;-59
2022/12/17 13:46:53;;;;;;;36.03;27.50;;;;;;;12.98;98.24;99568.06;5052447;28;20216;-58
2022/12/17 13:49:23;;;;;;;35.60;28.40;;;;;;;13.06;98.37;99570.69;5052626;28;20195;-58
2022/12/17 13:52:01;;;;;;;32.37;26.43;;;;;;;13.03;98.06;99552.63;5052887;28;20194;-58
2022/12/17 13:54:28;;;;;;;40.17;28.20;;;;;;;13.18;98.15;99562.22;5052885;28;20189;-59
2022/12/17 13:56:55;;;;;;;33.63;26.27;;;;;;;13.20;98.15;99556.22;5052728;28;20215;-58
2022/12/17 13:59:24;;;;;;;34.80;26.67;;;;;;;13.11;98.06;99548.41;5052635;28;20195;-59
2022/12/17 14:01:52;;;;;;;33.20;26.43;;;;;;;13.26;98.17;99574.31;5052651;28;20222;-58
2022/12/17 14:04:23;;;;;;;35.00;26.93;;;;;;;13.27;97.59;99580.31;5052438;28;20184;-59
2022/12/17 14:06:50;;;;;;;31.73;26.50;;;;;;;13.22;97.98;99587.19;5052554;28;20214;-59
2022/12/17 14:09:20;;;;;;;38.27;30.03;;;;;;;13.25;97.94;99582.91;5052113;28;20315;-59
2022/12/17 14:14:33;;;;;;;52.37;33.90;;;;;;;13.28;97.84;99588.09;5052389;28;20207;-58
2022/12/17 14:17:01;;;;;;;48.67;33.17;;;;;;;13.28;97.57;99592.38;5051951;28;20188;-59
2022/12/17 14:19:32;;;;;;;48.23;32.53;;;;;;;13.27;97.37;99588.94;5052376;28;20543;-58
2022/12/17 14:22:00;;;;;;;49.40;31.63;;;;;;;13.25;97.00;99592.34;5052346;28;20184;-58
2022/12/17 14:24:28;;;;;;;49.63;31.40;;;;;;;13.14;96.99;99588.84;5052130;28;20493;-58
2022/12/17 14:26:58;;;;;;;45.30;30.87;;;;;;;13.11;96.89;99612.91;5051600;28;20228;-58
2022/12/17 14:29:27;;;;;;;42.83;29.07;;;;;;;13.05;96.58;99605.06;5052202;28;20637;-58
2022/12/17 14:31:57;;;;;;;45.63;30.63;;;;;;;12.98;96.79;99593.84;5053134;28;20205;-58
2022/12/17 14:34:24;;;;;;;42.67;30.37;;;;;;;12.90;96.96;99589.50;5061699;28;20199;-58
2022/12/17 14:36:57;;;;;;;40.27;29.40;;;;;;;12.83;97.27;99585.97;5072131;28;20210;-58
2022/12/17 14:39:27;;;;;;;45.40;30.80;;;;;;;12.77;97.37;99590.25;5066981;28;20183;-58
2022/12/17 14:44:51;;;;;;;59.13;38.63;;;;;;;12.54;98.79;99608.06;5071957;28;20318;-56
2022/12/17 14:47:21;;;;;;;64.17;38.83;;;;;;;12.36;99.32;99580.38;5071709;28;20221;-58
2022/12/17 14:49:58;;;;;;;62.53;41.73;;;;;;;12.37;99.73;99587.28;5072011;28;20188;-57
2022/12/17 14:52:36;;;;;;;53.70;36.07;;;;;;;12.45;99.38;99613.09;5071819;28;20642;-58
2022/12/17 14:55:25;;;;;;;63.80;40.17;;;;;;;12.46;99.13;99621.72;5071597;28;20199;-58
2022/12/17 14:57:53;;;;;;;59.70;37.87;;;;;;;12.47;99.43;99628.59;5071691;28;20196;-58
2022/12/17 15:00:21;;;;;;;50.30;34.00;;;;;;;12.48;99.45;99646.66;5062084;28;20196;-57
2022/12/17 15:02:52;;;;;;;48.33;33.47;;;;;;;12.47;99.76;99646.66;5051714;28;20221;-57
2022/12/17 15:05:19;;;;;;;50.00;34.13;;;;;;;12.40;99.57;99633.69;5050670;28;20184;-58
2022/12/17 15:07:47;;;;;;;45.63;33.43;;;;;;;12.40;99.23;99649.16;5056384;28;20290;-59
2022/12/17 15:10:19;;;;;;;49.27;34.13;;;;;;;12.42;99.50;99668.06;5071386;28;20203;-58
2022/12/17 15:12:47;;;;;;;50.33;36.40;;;;;;;12.52;99.46;99675.91;5071415;28;20189;-58
2022/12/17 15:15:16;;;;;;;51.13;34.00;;;;;;;12.52;99.00;99674.19;5071629;28;20646;-58
2022/12/17 15:17:43;;;;;;;54.80;33.20;;;;;;;12.57;99.08;99681.97;5061074;28;20200;-57
2022/12/17 15:20:16;;;;;;;49.00;34.27;;;;;;;12.61;98.61;99678.59;5056025;28;20183;-59
2022/12/17 15:22:43;;;;;;;46.20;33.17;;;;;;;12.65;97.95;99685.50;5071166;28;20655;-58
2022/12/17 15:25:13;;;;;;;56.17;36.13;;;;;;;12.70;98.17;99702.75;5071042;28;20183;-57
2022/12/17 15:27:40;;;;;;;50.33;36.20;;;;;;;12.61;97.43;99709.53;5071370;28;20222;-57
2022/12/17 15:30:10;;;;;;;54.67;35.73;;;;;;;12.74;97.60;99742.31;5071331;28;20195;-57
2022/12/17 15:32:36;;;;;;;61.47;38.60;;;;;;;12.73;97.48;99751.75;5071142;28;20194;-58
2022/12/17 15:35:03;;;;;;;66.67;42.00;;;;;;;12.71;97.62;99761.19;5071653;28;20184;-58
2022/12/17 15:37:30;;;;;;;63.37;42.80;;;;;;;12.67;98.08;99771.44;5071021;28;20708;-58
2022/12/17 15:39:58;;;;;;;51.97;38.37;;;;;;;12.69;98.68;99777.50;5071497;28;20193;-58
2022/12/17 15:45:10;;;;;;;59.93;39.83;;;;;;;12.70;99.59;99777.50;5071215;28;20186;-58
2022/12/17 15:47:37;;;;;;;54.40;38.37;;;;;;;12.69;100.00;99769.75;5071437;28;20211;-58
2022/12/17 15:50:05;;;;;;;62.17;40.30;;;;;;;12.49;100.00;99735.13;5070682;28;20582;-57
2022/12/17 15:52:32;;;;;;;62.67;45.17;;;;;;;12.75;100.00;99756.91;5071281;28;20210;-57
2022/12/17 15:54:58;;;;;;;64.27;45.63;;;;;;;12.77;100.00;99737.19;5070978;28;20183;-57
2022/12/17 15:57:27;;;;;;;78.27;49.83;;;;;;;12.74;100.00;99701.94;5070936;28;20183;-57
2022/12/17 15:59:53;;;;;;;69.67;49.97;;;;;;;12.68;100.00;99660.63;5071097;28;20201;-58
2022/12/17 16:02:20;;;;;;;69.40;47.87;;;;;;;12.43;100.00;99622.53;5071535;28;20295;-57
2022/12/17 16:04:47;;;;;;;64.20;45.00;;;;;;;12.40;100.00;99632.81;5070987;28;20233;-58
2022/12/17 16:07:15;;;;;;;69.13;45.50;;;;;;;12.38;100.00;99624.22;5070333;28;20280;-57
2022/12/17 16:09:41;;;;;;;66.53;46.80;;;;;;;12.37;100.00;99619.91;5070931;28;20203;-56
2022/12/17 16:12:08;;;;;;;74.90;49.63;;;;;;;12.38;100.00;99631.94;5065140;28;20246;-56
2022/12/17 16:14:36;;;;;;;70.73;47.07;;;;;;;12.39;100.00;99668.03;5067980;28;20192;-56
2022/12/17 16:17:03;;;;;;;72.13;42.53;;;;;;;12.39;100.00;99700.66;5069832;28;20180;-56
2022/12/17 16:19:30;;;;;;;61.38;48.50;;;;;;;12.46;100.00;99699.88;5072794;28;20425;-57
2022/12/17 16:21:57;;;;;;;69.53;49.57;;;;;;;12.52;100.00;99684.50;5074406;28;20241;-56
2022/12/17 16:24:24;;;;;;;79.27;54.13;;;;;;;12.43;100.00;99681.81;5074123;28;20612;-56
2022/12/17 16:26:51;;;;;;;77.20;50.63;;;;;;;12.48;100.00;99679.28;5074540;28;20224;-56
2022/12/17 16:29:17;;;;;;;79.07;60.63;;;;;;;12.46;100.00;99686.13;5073706;28;20695;-57
2022/12/17 16:31:46;;;;;;;77.17;54.07;;;;;;;12.37;100.00;99684.31;5074238;28;20286;-56
2022/12/17 16:34:13;;;;;;;85.77;55.87;;;;;;;12.43;100.00;99684.38;5072350;28;20229;-57
2022/12/17 16:36:40;;;;;;;74.73;52.43;;;;;;;12.47;100.00;99686.13;5070038;28;20187;-56
2022/12/17 16:39:07;;;;;;;74.67;50.47;;;;;;;12.48;100.00;99674.13;5074261;28;20277;-56
2022/12/17 16:41:34;;;;;;;79.53;53.90;;;;;;;12.37;100.00;99646.53;5074831;28;20238;-56
2022/12/17 16:44:01;;;;;;;78.47;52.00;;;;;;;12.54;100.00;99663.88;5065658;28;20548;-56
2022/12/17 16:46:30;;;;;;;87.40;60.93;;;;;;;12.57;100.00;99675.09;5066576;28;20192;-56
2022/12/17 16:49:03;;;;;;;112.37;81.87;;;;;;;12.33;100.00;99683.41;5074202;28;20215;-56
2022/12/17 16:51:30;;;;;;;90.03;64.27;;;;;;;12.17;100.00;99696.94;5074085;28;20183;-56
2022/12/17 16:53:57;;;;;;;87.63;59.23;;;;;;;12.13;100.00;99704.63;5073891;28;20190;-56
2022/12/17 16:56:27;;;;;;;80.60;57.43;;;;;;;12.09;100.00;99711.44;5074524;28;20183;-56
2022/12/17 16:58:54;;;;;;;77.00;52.93;;;;;;;11.86;100.00;99702.53;5073451;28;20219;-57
2022/12/17 17:01:22;;;;;;;75.30;50.77;;;;;;;11.80;100.00;99721.34;5073239;28;20270;-56
2022/12/17 17:03:49;;;;;;;83.43;55.03;;;;;;;11.71;100.00;99725.47;5066716;28;20270;-57
2022/12/17 17:06:20;;;;;;;95.67;54.10;;;;;;;11.66;100.00;99721.91;5056625;28;20617;-56
2022/12/17 17:08:47;;;;;;;75.23;49.83;;;;;;;11.44;100.00;99718.16;5052964;28;20216;-57
2022/12/17 17:11:18;;;;;;;85.20;51.73;;;;;;;11.33;100.00;99726.53;5055343;28;20192;-57
2022/12/17 17:13:45;;;;;;;89.33;53.03;;;;;;;11.02;100.00;99705.41;5064444;28;20215;-56
2022/12/17 17:16:15;;;;;;;85.83;54.13;;;;;;;11.17;100.00;99730.53;5059677;28;20620;-57
2022/12/17 17:18:42;;;;;;;81.57;54.33;;;;;;;11.14;100.00;99741.66;5053081;28;20194;-56
2022/12/17 17:21:22;;;;;;;83.43;53.03;;;;;;;11.06;100.00;99727.78;5057281;28;20180;-57
2022/12/17 17:23:52;;;;;;;86.90;54.47;;;;;;;11.07;100.00;99744.94;5072496;28;20187;-57
2022/12/17 17:26:19;;;;;;;82.80;52.33;;;;;;;11.09;100.00;99756.13;5072919;28;20191;-55
2022/12/17 17:28:47;;;;;;;77.23;50.90;;;;;;;11.01;100.00;99755.13;5072332;28;20211;-56
2022/12/17 17:31:15;;;;;;;85.03;52.10;;;;;;;11.09;100.00;99762.97;5072918;28;20187;-57
2022/12/17 17:33:45;;;;;;;78.97;49.30;;;;;;;11.09;100.00;99757.84;5071856;28;20651;-57
2022/12/17 17:36:16;;;;;;;71.43;48.10;;;;;;;11.10;100.00;99772.41;5073048;28;20671;-57
2022/12/17 17:38:43;;;;;;;76.90;51.03;;;;;;;11.21;100.00;99771.75;5072820;28;20199;-56
2022/12/17 17:41:13;;;;;;;80.30;53.63;;;;;;;11.23;100.00;99767.50;5072709;28;20180;-56
2022/12/17 17:43:40;;;;;;;87.33;55.87;;;;;;;11.19;100.00;99770.88;5071509;28;20539;-57
2022/12/17 17:46:09;;;;;;;79.53;52.13;;;;;;;11.21;100.00;99768.31;5066656;28;20187;-57
2022/12/17 17:48:36;;;;;;;73.07;50.00;;;;;;;11.03;100.00;99730.31;5071481;28;20207;-57
2022/12/17 17:51:05;;;;;;;81.47;53.40;;;;;;;11.33;100.00;99767.69;5072102;28;20645;-57
2022/12/17 17:53:32;;;;;;;76.23;54.67;;;;;;;11.42;100.00;99758.44;5072227;28;20249;-57
2022/12/17 17:56:04;;;;;;;79.90;51.97;;;;;;;11.52;100.00;99764.56;5069405;28;20188;-57
2022/12/17 17:58:33;;;;;;;68.40;49.00;;;;;;;11.61;100.00;99764.75;5069242;28;20192;-57
2022/12/17 18:01:00;;;;;;;69.53;48.13;;;;;;;11.64;100.00;99783.69;5070587;28;20179;-57
2022/12/17 18:03:29;;;;;;;71.93;47.70;;;;;;;11.64;100.00;99793.09;5069101;28;20266;-56
2022/12/17 18:05:56;;;;;;;80.20;52.23;;;;;;;11.67;100.00;99782.88;5071744;28;20215;-56
2022/12/17 18:08:23;;;;;;;80.33;52.60;;;;;;;11.69;100.00;99774.34;5071544;28;20218;-57
2022/12/17 18:10:59;;;;;;;68.87;50.73;;;;;;;11.73;100.00;99773.53;5072281;28;20179;-56
2022/12/17 18:16:13;;;;;;;75.77;53.90;;;;;;;11.76;100.00;99786.47;5068235;28;20297;-55
2022/12/17 18:18:40;;;;;;;71.83;48.70;;;;;;;11.65;100.00;99769.06;5068955;28;20187;-56
2022/12/17 18:21:08;;;;;;;73.03;47.93;;;;;;;11.73;100.00;99783.84;5066220;28;20211;-56
2022/12/17 18:23:37;;;;;;;80.23;53.23;;;;;;;11.73;100.00;99783.84;5071399;28;20180;-56
2022/12/17 18:26:06;;;;;;;69.50;46.67;;;;;;;11.63;100.00;99765.63;5071912;28;20572;-56
2022/12/17 18:28:33;;;;;;;76.67;51.77;;;;;;;11.71;100.00;99789.81;5071987;28;20215;-57
2022/12/17 18:31:05;;;;;;;82.20;53.17;;;;;;;11.70;100.00;99793.25;5071588;28;20752;-57
2022/12/17 18:33:34;;;;;;;74.67;50.80;;;;;;;11.65;100.00;99797.38;5069805;28;20183;-57
2022/12/17 18:36:01;;;;;;;72.13;50.00;;;;;;;11.68;100.00;99810.31;5071846;28;20184;-57
2022/12/17 18:38:28;;;;;;;77.63;51.03;;;;;;;11.67;100.00;99814.59;5069269;28;20183;-57
2022/12/17 18:40:54;;;;;;;76.43;52.93;;;;;;;11.65;100.00;99812.81;5071865;28;20179;-57
2022/12/17 18:43:23;;;;;;;72.47;51.83;;;;;;;11.63;100.00;99817.09;5071543;28;20191;-57
2022/12/17 18:45:50;;;;;;;77.93;51.50;;;;;;;11.60;100.00;99824.75;5071614;28;20180;-57
2022/12/17 18:48:17;;;;;;;74.00;53.30;;;;;;;11.56;100.00;99825.56;5071494;28;20234;-57
2022/12/17 18:50:45;;;;;;;86.57;52.93;;;;;;;11.46;100.00;99833.94;5071196;28;20538;-57
2022/12/17 18:53:12;;;;;;;76.50;52.47;;;;;;;11.47;100.00;99848.53;5067285;28;20559;-57
2022/12/17 18:55:40;;;;;;;87.47;62.72;;;;;;;11.48;100.00;99833.13;5050777;28;20472;-56
2022/12/17 18:58:07;;;;;;;84.77;57.33;;;;;;;11.57;100.00;99829.84;5051582;28;20544;-56
2022/12/17 19:00:34;;;;;;;81.37;53.63;;;;;;;11.55;100.00;99805.81;5051599;28;20189;-56
2022/12/17 19:03:03;;;;;;;78.87;52.40;;;;;;;11.62;100.00;99812.81;5051735;28;20184;-57
2022/12/17 19:05:30;;;;;;;79.00;52.30;;;;;;;11.60;100.00;99819.63;5062627;28;20216;-57
2022/12/17 19:07:58;;;;;;;72.53;48.40;;;;;;;11.59;100.00;99810.19;5070727;28;20187;-56
2022/12/17 19:10:24;;;;;;;72.50;51.03;;;;;;;11.66;100.00;99817.16;5071291;28;20301;-56
2022/12/17 19:12:51;;;;;;;76.10;51.00;;;;;;;11.63;100.00;99829.97;5069467;28;20237;-56
2022/12/17 19:15:18;;;;;;;74.03;52.97;;;;;;;11.49;100.00;99828.84;5071607;28;20184;-56
2022/12/17 19:17:49;;;;;;;83.73;56.47;;;;;;;11.43;100.00;99834.75;5058084;28;20287;-56
2022/12/17 19:20:17;;;;;;;86.30;57.03;;;;;;;11.39;100.00;99838.13;5054511;28;20218;-56
2022/12/17 19:22:44;;;;;;;81.47;56.03;;;;;;;11.39;100.00;99839.81;5058616;28;20195;-56
2022/12/17 19:25:12;;;;;;;81.40;56.13;;;;;;;11.39;100.00;99855.25;5052005;28;20184;-58
2022/12/17 19:27:39;;;;;;;84.90;56.87;;;;;;;11.41;100.00;99884.44;5067976;28;20277;-57
2022/12/17 19:30:07;;;;;;;74.40;54.87;;;;;;;11.37;100.00;99883.50;5060555;28;20689;-57
2022/12/17 19:32:34;;;;;;;82.13;52.73;;;;;;;11.36;100.00;99886.06;5050900;28;20200;-57
2022/12/17 19:35:01;;;;;;;77.13;55.73;;;;;;;11.36;100.00;99886.94;5051521;28;20261;-57
2022/12/17 19:37:28;;;;;;;75.07;52.70;;;;;;;11.35;100.00;99897.19;5051101;28;20195;-57
2022/12/17 19:39:55;;;;;;;74.13;52.00;;;;;;;11.36;100.00;99902.38;5051253;28;20578;-56
2022/12/17 19:42:27;;;;;;;76.47;52.10;;;;;;;11.36;100.00;99906.66;5051017;28;20195;-57
2022/12/17 19:44:55;;;;;;;76.87;51.67;;;;;;;11.36;100.00;99901.50;5051153;28;20599;-56
2022/12/17 19:47:22;;;;;;;80.87;53.40;;;;;;;11.32;100.00;99897.16;5055924;28;20195;-57
2022/12/17 19:49:49;;;;;;;86.00;51.87;;;;;;;11.35;100.00;99890.34;5050882;28;20218;-57
2022/12/17 19:52:16;;;;;;;73.30;51.90;;;;;;;11.39;100.00;99899.00;5053151;28;20195;-56
2022/12/17 19:54:43;;;;;;;86.00;53.33;;;;;;;11.46;100.00;99914.56;5054755;28;20685;-56
2022/12/17 19:57:10;;;;;;;76.97;54.03;;;;;;;11.49;100.00;99929.19;5054591;28;20246;-57
2022/12/17 19:59:38;;;;;;;74.83;52.47;;;;;;;11.43;100.00;99929.06;5054416;28;20238;-56
2022/12/17 20:02:05;;;;;;;74.50;50.30;;;;;;;11.39;100.00;99942.72;5054560;28;20184;-56
2022/12/17 20:04:32;;;;;;;77.43;53.03;;;;;;;11.35;100.00;99956.34;5054648;28;20185;-56
2022/12/17 20:06:59;;;;;;;84.13;60.28;;;;;;;11.41;100.00;99948.78;5052588;28;20481;-56
2022/12/17 20:09:26;;;;;;;82.87;55.00;;;;;;;11.50;100.00;99941.25;5064030;28;20685;-57
2022/12/17 20:11:53;;;;;;;83.43;56.03;;;;;;;11.46;100.00;99911.13;5059996;28;20192;-56
2022/12/17 20:14:22;;;;;;;81.63;55.40;;;;;;;11.61;100.00;99906.28;5054654;28;20189;-56
2022/12/17 20:16:52;;;;;;;63.83;47.77;;;;;;;11.22;100.00;99852.38;5071334;28;20195;-56
2022/12/17 20:19:21;;;;;;;75.97;50.40;;;;;;;11.63;100.00;99922.63;5074382;28;20195;-56
2022/12/17 20:21:48;;;;;;;99.70;70.47;;;;;;;11.71;100.00;99900.50;5074820;28;20198;-55
2022/12/17 20:24:16;;;;;;;79.60;52.57;;;;;;;11.59;100.00;99872.78;5074399;28;20183;-56
2022/12/17 20:26:44;;;;;;;88.50;55.40;;;;;;;11.29;100.00;99801.91;5074313;28;20222;-55
2022/12/17 20:29:11;;;;;;;76.97;52.23;;;;;;;11.18;100.00;99804.25;5073733;28;20199;-56
2022/12/17 20:31:38;;;;;;;74.17;50.20;;;;;;;11.13;100.00;99854.75;5073852;28;20236;-56
2022/12/17 20:34:08;;;;;;;80.47;53.07;;;;;;;11.25;100.00;99883.28;5074185;28;20551;-56
2022/12/17 20:36:37;;;;;;;69.43;49.10;;;;;;;11.35;100.00;99918.63;5070533;28;20279;-56
2022/12/17 20:39:04;;;;;;;64.13;48.87;;;;;;;11.40;100.00;99932.47;5074103;28;20187;-56
2022/12/17 20:41:33;;;;;;;71.17;48.23;;;;;;;11.43;100.00;99939.38;5071682;28;20590;-56
2022/12/17 20:44:04;;;;;;;77.13;50.43;;;;;;;11.45;100.00;99942.84;5054012;28;20185;-56
2022/12/17 20:46:31;;;;;;;77.17;52.93;;;;;;;11.50;100.00;99947.25;5054056;28;20180;-56
2022/12/17 20:48:59;;;;;;;70.43;51.30;;;;;;;11.58;100.00;99952.53;5059137;28;20214;-56
2022/12/17 20:51:29;;;;;;;63.03;43.87;;;;;;;11.50;100.00;99934.41;5068088;28;20179;-56
2022/12/17 20:53:58;;;;;;;59.97;43.73;;;;;;;11.67;100.00;99956.16;5073276;28;20184;-56
2022/12/17 20:56:27;;;;;;;60.13;42.13;;;;;;;11.72;100.00;99959.75;5070539;28;20183;-57
2022/12/17 20:58:55;;;;;;;61.63;42.87;;;;;;;11.75;100.00;99957.22;5073314;28;20233;-57
2022/12/17 21:01:24;;;;;;;58.17;42.80;;;;;;;11.72;100.00;99948.56;5073188;28;20187;-57
2022/12/17 21:03:53;;;;;;;62.13;44.83;;;;;;;11.76;100.00;99945.19;5072097;28;20550;-57
2022/12/17 21:06:21;;;;;;;55.83;40.17;;;;;;;11.80;100.00;99957.31;5072968;28;20210;-57
2022/12/17 21:08:51;;;;;;;60.40;42.83;;;;;;;11.79;100.00;99973.56;5072947;28;20635;-56
2022/12/17 21:11:19;;;;;;;52.60;41.00;;;;;;;11.77;100.00;99977.84;5072974;28;20183;-57
2022/12/17 21:13:46;;;;;;;57.03;41.20;;;;;;;11.80;100.00;99976.19;5072478;28;20184;-56
2022/12/17 21:16:15;;;;;;;62.37;42.60;;;;;;;11.69;100.00;99943.34;5073389;28;20562;-55
2022/12/17 21:18:42;;;;;;;64.07;45.33;;;;;;;11.80;100.00;99975.31;5073664;28;20191;-56
2022/12/17 21:21:12;;;;;;;64.23;46.23;;;;;;;11.79;100.00;99977.03;5073293;28;20195;-56
2022/12/17 21:23:40;;;;;;;65.27;45.77;;;;;;;11.79;100.00;99981.31;5073740;28;20265;-56
2022/12/17 21:26:12;;;;;;;58.33;44.47;;;;;;;11.78;100.00;99982.16;5073984;28;20241;-56
2022/12/17 21:28:41;;;;;;;62.47;44.80;;;;;;;11.78;100.00;99989.88;5073184;28;20219;-56
2022/12/17 21:31:15;;;;;;;55.40;41.77;;;;;;;11.76;100.00;99986.38;5073297;28;20274;-56
2022/12/17 21:33:42;;;;;;;59.93;42.07;;;;;;;11.74;100.00;99982.94;5073267;28;20187;-56
2022/12/17 21:36:09;;;;;;;57.83;42.93;;;;;;;11.73;100.00;99981.19;5073516;28;20199;-56
2022/12/17 21:38:36;;;;;;;68.20;43.83;;;;;;;11.67;100.00;99976.75;5072567;28;20194;-56
2022/12/17 21:41:06;;;;;;;61.20;42.70;;;;;;;11.55;100.00;99962.78;5073133;28;20649;-56
2022/12/17 21:43:35;;;;;;;58.63;41.17;;;;;;;11.63;100.00;99994.69;5073422;28;20278;-56
2022/12/17 21:46:03;;;;;;;60.53;45.03;;;;;;;11.64;100.00;99993.84;5073116;28;20703;-57
2022/12/17 21:48:30;;;;;;;59.97;45.33;;;;;;;11.62;100.00;99985.25;5073068;28;20184;-57
2022/12/17 21:50:57;;;;;;;58.13;41.87;;;;;;;11.67;100.00;99993.91;5072852;28;20251;-56
2022/12/17 21:53:24;;;;;;;64.87;44.47;;;;;;;11.62;100.00;99978.38;5072079;28;20183;-57
2022/12/17 21:55:51;;;;;;;68.20;50.63;;;;;;;11.64;100.00;99978.41;5072535;28;20195;-57
2022/12/17 21:58:18;;;;;;;68.30;48.13;;;;;;;11.61;100.00;99981.78;5072853;28;20291;-57
2022/12/17 22:00:46;;;;;;;65.30;46.97;;;;;;;11.64;100.00;99975.84;5072868;28;20203;-57
2022/12/17 22:03:12;;;;;;;64.27;43.77;;;;;;;11.61;100.00;99980.91;5072459;28;20179;-56
2022/12/17 22:05:39;;;;;;;61.90;47.70;;;;;;;11.60;100.00;99980.06;5072494;28;20638;-56
2022/12/17 22:08:06;;;;;;;71.07;49.13;;;;;;;11.58;100.00;99986.00;5072823;28;20309;-56
2022/12/17 22:10:33;;;;;;;67.93;47.53;;;;;;;11.59;100.00;99977.47;5072827;28;20218;-56
2022/12/17 22:15:45;;;;;;;68.40;48.10;;;;;;;11.52;100.00;99971.31;5072236;28;20190;-56
2022/12/17 22:18:12;;;;;;;95.63;61.57;;;;;;;11.41;100.00;99977.06;5072049;28;20183;-56
2022/12/17 22:20:39;;;;;;;90.30;60.47;;;;;;;11.20;100.00;99985.22;5072101;28;20612;-56
2022/12/17 22:23:06;;;;;;;96.83;61.47;;;;;;;11.16;100.00;99999.72;5072125;28;20184;-56
2022/12/17 22:25:36;;;;;;;90.60;64.07;;;;;;;11.13;100.00;99991.91;5071930;28;20191;-57
2022/12/17 22:28:03;;;;;;;92.70;61.83;;;;;;;11.22;100.00;100006.69;5072038;28;20762;-56
2022/12/17 22:33:16;;;;;;;80.47;55.73;;;;;;;11.28;100.00;100009.41;5072294;28;20245;-57
2022/12/17 22:35:45;;;;;;;74.43;53.90;;;;;;;11.32;100.00;100013.75;5071779;28;20195;-57
2022/12/17 22:38:12;;;;;;;80.40;54.97;;;;;;;11.36;100.00;100009.56;5072104;28;20179;-57
2022/12/17 22:40:39;;;;;;;61.70;45.50;;;;;;;11.41;100.00;100015.66;5071658;28;20541;-57
2022/12/17 22:45:51;;;;;;;56.40;40.70;;;;;;;11.52;100.00;100016.75;5051832;28;20191;-56
2022/12/17 22:48:19;;;;;;;57.57;41.47;;;;;;;11.60;100.00;100025.50;5052041;28;20195;-56
2022/12/17 22:50:46;;;;;;;55.83;39.70;;;;;;;11.63;100.00;100023.00;5052000;28;20212;-55
2022/12/17 22:53:12;;;;;;;58.17;41.47;;;;;;;11.68;100.00;100021.38;5051770;28;20184;-56
2022/12/17 22:55:39;;;;;;;60.23;40.87;;;;;;;11.72;100.00;100038.66;5051833;28;20184;-56
2022/12/17 22:58:06;;;;;;;63.70;45.00;;;;;;;11.72;100.00;100033.53;5051666;28;20191;-56
2022/12/17 23:00:35;;;;;;;63.37;43.43;;;;;;;11.70;100.00;100042.94;5051781;28;20188;-56
2022/12/17 23:03:02;;;;;;;56.77;39.93;;;;;;;11.71;100.00;100052.38;5054267;28;20184;-56
2022/12/17 23:05:31;;;;;;;55.93;39.63;;;;;;;11.65;100.00;100037.63;5060685;28;20219;-55
2022/12/17 23:07:58;;;;;;;58.57;43.40;;;;;;;11.73;100.00;100033.53;5051491;28;20184;-56
2022/12/17 23:10:27;;;;;;;61.20;42.53;;;;;;;11.49;100.00;100001.25;5051518;28;20682;-56
2022/12/17 23:12:55;;;;;;;60.37;42.03;;;;;;;11.59;100.00;100034.06;5051624;28;20187;-56
2022/12/17 23:15:29;;;;;;;56.67;42.63;;;;;;;11.55;100.00;100022.84;5062214;28;20233;-57
2022/12/17 23:17:58;;;;;;;63.97;43.53;;;;;;;11.51;100.00;99994.44;5051638;28;20257;-56
2022/12/17 23:20:26;;;;;;;58.23;44.63;;;;;;;11.30;100.00;99999.13;5051387;28;20192;-56
2022/12/17 23:22:55;;;;;;;67.60;44.70;;;;;;;11.13;100.00;100007.34;5064585;28;20188;-56
2022/12/17 23:25:22;;;;;;;59.67;42.50;;;;;;;11.15;100.00;100035.69;5071591;28;20241;-56
2022/12/17 23:27:50;;;;;;;56.93;41.67;;;;;;;11.25;100.00;100064.22;5074665;28;20620;-56
2022/12/17 23:30:17;;;;;;;55.10;41.00;;;;;;;11.30;100.00;100058.28;5075605;28;20345;-56
2022/12/17 23:32:44;;;;;;;54.07;41.83;;;;;;;11.34;100.00;100065.25;5075696;28;20183;-56
2022/12/17 23:35:12;;;;;;;59.43;42.30;;;;;;;11.34;100.00;100054.97;5056166;28;20203;-56
2022/12/17 23:37:40;;;;;;;53.10;40.70;;;;;;;11.40;100.00;100060.25;5055157;28;20638;-56
2022/12/17 23:40:14;;;;;;;55.27;43.83;;;;;;;11.46;100.00;100055.22;5055309;28;20202;-56
2022/12/17 23:42:41;;;;;;;92.20;56.10;;;;;;;11.50;100.00;100073.34;5055508;28;20188;-56
2022/12/17 23:45:10;;;;;;;60.97;43.80;;;;;;;11.57;100.00;100077.78;5055512;28;20191;-56
2022/12/17 23:47:37;;;;;;;59.53;44.57;;;;;;;11.57;100.00;100075.19;5055384;28;20310;-56
2022/12/17 23:50:04;;;;;;;65.53;47.00;;;;;;;11.62;100.00;100071.03;5072159;28;20222;-56
2022/12/17 23:52:31;;;;;;;68.87;45.20;;;;;;;11.65;100.00;100086.53;5075229;28;20638;-56
2022/12/17 23:54:58;;;;;;;54.07;41.97;;;;;;;11.68;100.00;100090.88;5074953;28;20191;-56
2022/12/17 23:57:26;;;;;;;56.23;41.60;;;;;;;11.69;100.00;100092.66;5073663;28;20187;-56
2022/12/17 23:59:53;;;;;;;59.00;42.17;;;;;;;11.72;100.00;100096.16;5075216;28;20188;-56
